Time;durP1;ratioP1;P1;durP2;ratioP2;P2;SDS_P1;SDS_P2;PMS_P1;PMS_P2;Temp;Humidity;BMP_temperature;BMP_pressure;BME280_temperature;BME280_humidity;BME280_pressure;Samples;Min_cycle;Max_cycle;Signal;HPM_P1;HPM_P2
2022/04/12 00:01:23;;;;;;;;;;;6.80;65.50;;;;;;6095638;23;19925;-80
2022/04/12 00:03:50;;;;;;;;;;;6.70;66.10;;;;;;6094918;23;19925;-82
2022/04/12 00:06:17;;;;;;;;;;;6.70;66.80;;;;;;6096309;23;19917;-79
2022/04/12 00:08:44;;;;;;;;;;;6.70;65.60;;;;;;6100871;23;20227;-81
2022/04/12 00:11:11;;;;;;;;;;;6.70;65.70;;;;;;6099670;23;19921;-78
2022/04/12 00:13:38;;;;;;;;;;;6.70;66.00;;;;;;6100539;23;19923;-79
2022/04/12 00:16:05;;;;;;;;;;;6.60;66.50;;;;;;6099553;23;20389;-82
2022/04/12 00:21:18;;;;;;;;;;;6.50;67.00;;;;;;6126379;23;19940;-80
2022/04/12 00:23:45;;;;;;;;;;;6.40;67.60;;;;;;6100929;23;20221;-81
2022/04/12 00:26:12;;;;;;;;;;;6.30;68.00;;;;;;6100147;23;19917;-78
2022/04/12 00:28:40;;;;;;;;;;;6.20;67.60;;;;;;6099693;23;19951;-82
2022/04/12 00:31:07;;;;;;;;;;;6.30;67.30;;;;;;6100727;23;19960;-78
2022/04/12 00:33:35;;;;;;;;;;;6.20;68.00;;;;;;6099221;23;19988;-81
2022/04/12 00:36:04;;;;;;;;;;;6.10;68.70;;;;;;6100731;23;19920;-78
2022/04/12 00:38:35;;;;;;;;;;;6.00;69.10;;;;;;6098682;23;20243;-81
2022/04/12 00:41:04;;;;;;;;;;;5.90;69.20;;;;;;6100377;23;19921;-82
2022/04/12 00:43:34;;;;;;;;;;;5.80;69.20;;;;;;6100781;23;19917;-78
2022/04/12 00:46:00;;;;;;;;;;;5.80;70.50;;;;;;6127088;23;20257;-80
2022/04/12 00:48:28;;;;;;;;;;;5.80;70.20;;;;;;6100060;23;19916;-78
2022/04/12 00:50:55;;;;;;;;;;;5.80;70.50;;;;;;6099931;23;20478;-80
2022/04/12 00:53:23;;;;;;;;;;;5.90;68.90;;;;;;6100579;23;19917;-81
2022/04/12 00:55:50;;;;;;;;;;;6.00;68.00;;;;;;6099400;23;20906;-80
2022/04/12 00:58:18;;;;;;;;;;;6.10;67.10;;;;;;6100813;23;19964;-79
2022/04/12 01:00:44;;;;;;;;;;;6.20;65.90;;;;;;6098970;23;19951;-80
2022/04/12 01:03:11;;;;;;;;;;;6.30;65.30;;;;;;6125372;23;19925;-83
2022/04/12 01:05:38;;;;;;;;;;;6.40;65.30;;;;;;6099988;23;19923;-82
2022/04/12 01:08:05;;;;;;;;;;;6.30;66.60;;;;;;6099147;23;19920;-81
2022/04/12 01:10:33;;;;;;;;;;;6.20;66.80;;;;;;6099013;23;20297;-81
2022/04/12 01:13:00;;;;;;;;;;;6.20;67.10;;;;;;6099774;23;19918;-80
2022/04/12 01:15:28;;;;;;;;;;;6.10;66.60;;;;;;6099264;23;19917;-80
2022/04/12 01:17:56;;;;;;;;;;;6.10;65.60;;;;;;6099424;23;20234;-77
2022/04/12 01:20:25;;;;;;;;;;;6.30;64.20;;;;;;6099996;23;19921;-78
2022/04/12 01:23:12;;;;;;;;;;;6.50;62.70;;;;;;6124280;23;19924;-80
2022/04/12 01:25:39;;;;;;;;;;;6.70;62.00;;;;;;6099862;23;19917;-82
2022/04/12 01:28:06;;;;;;;;;;;7.00;60.80;;;;;;6101393;23;20258;-78
2022/04/12 01:30:33;;;;;;;;;;;7.10;59.80;;;;;;6125692;23;19917;-80
2022/04/12 01:33:00;;;;;;;;;;;7.30;59.10;;;;;;6101555;23;19921;-80
2022/04/12 01:35:27;;;;;;;;;;;7.50;58.30;;;;;;6101011;23;19949;-77
2022/04/12 01:37:54;;;;;;;;;;;7.70;57.30;;;;;;6100184;23;19916;-79
2022/04/12 01:40:20;;;;;;;;;;;7.80;56.60;;;;;;6099847;23;20393;-80
2022/04/12 01:42:47;;;;;;;;;;;8.00;56.10;;;;;;6128444;23;20298;-79
2022/04/12 01:45:14;;;;;;;;;;;8.10;56.10;;;;;;6099249;23;19929;-83
2022/04/12 01:47:41;;;;;;;;;;;7.90;59.90;;;;;;6098575;23;20397;-80
2022/04/12 01:50:08;;;;;;;;;;;7.80;60.30;;;;;;6125323;23;19967;-80
2022/04/12 01:52:35;;;;;;;;;;;7.70;61.60;;;;;;6100431;23;19916;-80
2022/04/12 01:55:02;;;;;;;;;;;7.50;62.70;;;;;;6099048;23;19921;-78
2022/04/12 01:57:29;;;;;;;;;;;7.30;63.40;;;;;;6126700;23;19920;-80
2022/04/12 01:59:57;;;;;;;;;;;7.20;62.70;;;;;;6099142;23;19920;-80
2022/04/12 02:02:23;;;;;;;;;;;7.10;63.50;;;;;;6099463;23;19920;-81
2022/04/12 02:04:50;;;;;;;;;;;7.00;62.60;;;;;;6098509;23;19920;-80
2022/04/12 02:07:17;;;;;;;;;;;7.00;62.00;;;;;;6125459;23;19928;-79
2022/04/12 02:09:44;;;;;;;;;;;6.90;64.00;;;;;;6098475;23;19928;-83
2022/04/12 02:12:11;;;;;;;;;;;6.60;65.70;;;;;;6099947;23;19924;-81
2022/04/12 02:14:38;;;;;;;;;;;6.40;66.30;;;;;;6099305;23;19944;-78
2022/04/12 02:17:05;;;;;;;;;;;6.30;67.00;;;;;;6102172;23;19948;-79
2022/04/12 02:19:32;;;;;;;;;;;6.30;66.40;;;;;;6101198;23;20301;-80
2022/04/12 02:21:58;;;;;;;;;;;6.40;65.90;;;;;;6100454;23;19917;-81
2022/04/12 02:24:25;;;;;;;;;;;6.30;66.10;;;;;;6099310;23;19924;-80
2022/04/12 02:26:52;;;;;;;;;;;6.30;66.10;;;;;;6097729;23;19924;-83
2022/04/12 02:29:18;;;;;;;;;;;6.20;67.00;;;;;;6102202;23;19967;-78
2022/04/12 02:31:45;;;;;;;;;;;6.00;67.40;;;;;;6125081;23;19917;-80
2022/04/12 02:34:12;;;;;;;;;;;5.90;67.70;;;;;;6098820;23;20410;-83
2022/04/12 02:36:39;;;;;;;;;;;5.80;68.30;;;;;;6099777;23;19917;-80
2022/04/12 02:39:05;;;;;;;;;;;5.70;68.50;;;;;;6099042;23;20338;-81
2022/04/12 02:41:32;;;;;;;;;;;5.70;68.60;;;;;;6102020;23;20412;-81
2022/04/12 02:43:59;;;;;;;;;;;5.60;69.50;;;;;;6100833;23;20407;-78
2022/04/12 02:46:26;;;;;;;;;;;5.60;70.60;;;;;;6100691;23;19916;-80
2022/04/12 02:48:53;;;;;;;;;;;5.50;70.50;;;;;;6125584;23;19972;-80
2022/04/12 02:51:19;;;;;;;;;;;5.50;70.50;;;;;;6128258;23;19917;-80
2022/04/12 02:53:46;;;;;;;;;;;5.50;70.10;;;;;;6124158;23;20226;-80
2022/04/12 02:56:13;;;;;;;;;;;5.50;69.90;;;;;;6124896;23;19917;-78
2022/04/12 02:58:40;;;;;;;;;;;5.50;70.60;;;;;;6099556;23;19924;-81
2022/04/12 03:01:07;;;;;;;;;;;5.40;69.90;;;;;;6099537;23;19925;-79
2022/04/12 03:03:34;;;;;;;;;;;5.40;70.30;;;;;;6100987;23;20338;-82
2022/04/12 03:06:01;;;;;;;;;;;5.40;70.30;;;;;;6100309;23;19967;-80
2022/04/12 03:08:28;;;;;;;;;;;5.40;71.00;;;;;;6100529;23;19916;-82
2022/04/12 03:10:54;;;;;;;;;;;5.40;70.10;;;;;;6101498;23;19920;-80
2022/04/12 03:13:21;;;;;;;;;;;5.40;70.20;;;;;;6102487;23;20223;-80
2022/04/12 03:15:48;;;;;;;;;;;5.30;71.40;;;;;;6125680;23;19996;-82
2022/04/12 03:18:16;;;;;;;;;;;5.30;70.80;;;;;;6101282;23;19960;-82
2022/04/12 03:20:43;;;;;;;;;;;5.30;70.80;;;;;;6099528;23;19920;-81
2022/04/12 03:23:10;;;;;;;;;;;5.30;70.20;;;;;;6102165;23;19921;-79
2022/04/12 03:25:38;;;;;;;;;;;5.30;70.50;;;;;;6100813;23;19975;-80
2022/04/12 03:28:05;;;;;;;;;;;5.40;70.20;;;;;;6099404;23;20692;-81
2022/04/12 03:30:32;;;;;;;;;;;5.30;70.60;;;;;;6127164;23;19917;-80
2022/04/12 03:32:59;;;;;;;;;;;5.30;70.40;;;;;;6126333;23;19917;-81
2022/04/12 03:35:26;;;;;;;;;;;5.30;70.70;;;;;;6126404;23;19916;-78
2022/04/12 03:37:52;;;;;;;;;;;5.10;71.80;;;;;;6099419;23;19942;-79
2022/04/12 03:40:21;;;;;;;;;;;5.10;71.70;;;;;;6100031;23;19917;-82
2022/04/12 03:42:48;;;;;;;;;;;4.90;72.20;;;;;;6126687;23;19920;-80
2022/04/12 03:45:15;;;;;;;;;;;4.80;72.90;;;;;;6103118;23;20495;-80
2022/04/12 03:47:41;;;;;;;;;;;4.80;73.60;;;;;;6102420;23;19916;-78
2022/04/12 03:50:09;;;;;;;;;;;4.70;73.80;;;;;;6099948;23;20515;-80
2022/04/12 03:52:35;;;;;;;;;;;4.60;73.60;;;;;;6100524;23;19920;-80
2022/04/12 03:55:04;;;;;;;;;;;4.60;74.00;;;;;;6126014;23;20308;-80
2022/04/12 03:57:32;;;;;;;;;;;4.50;73.70;;;;;;6099695;23;20231;-83
2022/04/12 03:59:59;;;;;;;;;;;4.60;73.90;;;;;;6100433;23;19917;-80
2022/04/12 04:02:26;;;;;;;;;;;4.60;74.40;;;;;;6101871;23;20337;-82
2022/04/12 04:04:53;;;;;;;;;;;4.50;74.10;;;;;;6100628;23;19992;-78
2022/04/12 04:07:19;;;;;;;;;;;4.60;74.10;;;;;;6126002;23;19968;-80
2022/04/12 04:09:46;;;;;;;;;;;4.60;74.30;;;;;;6100122;23;19921;-81
2022/04/12 04:12:13;;;;;;;;;;;4.60;73.90;;;;;;6100271;23;19917;-78
2022/04/12 04:14:42;;;;;;;;;;;4.60;73.10;;;;;;6127506;23;19917;-80
2022/04/12 04:17:09;;;;;;;;;;;4.60;73.40;;;;;;6099599;23;19916;-82
2022/04/12 04:19:36;;;;;;;;;;;4.50;74.30;;;;;;6101509;23;19925;-82
2022/04/12 04:22:03;;;;;;;;;;;4.50;74.80;;;;;;6102551;23;20352;-80
2022/04/12 04:24:34;;;;;;;;;;;4.40;75.20;;;;;;6101950;23;19945;-82
2022/04/12 04:27:05;;;;;;;;;;;4.30;75.80;;;;;;6076743;23;19924;-82
2022/04/12 04:29:35;;;;;;;;;;;4.30;75.80;;;;;;6103759;23;19917;-79
2022/04/12 04:32:02;;;;;;;;;;;4.30;76.00;;;;;;6101800;23;19968;-79
2022/04/12 04:34:29;;;;;;;;;;;4.30;76.70;;;;;;6124650;23;19941;-80
2022/04/12 04:36:55;;;;;;;;;;;4.30;75.90;;;;;;6101010;23;19924;-82
2022/04/12 04:39:22;;;;;;;;;;;4.20;77.40;;;;;;6102726;23;19917;-81
2022/04/12 04:41:49;;;;;;;;;;;4.20;76.90;;;;;;6101818;23;19924;-82
2022/04/12 04:44:16;;;;;;;;;;;4.20;76.90;;;;;;6125524;23;19952;-79
2022/04/12 04:46:43;;;;;;;;;;;4.20;76.90;;;;;;6101067;23;19921;-80
2022/04/12 04:49:10;;;;;;;;;;;4.30;77.10;;;;;;6098871;23;19920;-79
2022/04/12 04:51:41;;;;;;;;;;;4.30;76.70;;;;;;6126485;23;20298;-82
2022/04/12 04:54:08;;;;;;;;;;;4.30;76.80;;;;;;6099754;23;19917;-79
2022/04/12 04:56:34;;;;;;;;;;;4.20;77.50;;;;;;6125900;23;19917;-81
2022/04/12 04:59:02;;;;;;;;;;;4.10;78.90;;;;;;6098757;23;19917;-80
2022/04/12 05:01:29;;;;;;;;;;;4.20;79.10;;;;;;6099867;23;19993;-80
2022/04/12 05:03:56;;;;;;;;;;;4.20;78.90;;;;;;6099946;23;19932;-80
2022/04/12 05:06:22;;;;;;;;;;;4.10;79.70;;;;;;6100497;23;19917;-81
2022/04/12 05:08:49;;;;;;;;;;;4.10;80.20;;;;;;6099841;23;19917;-80
2022/04/12 05:11:16;;;;;;;;;;;4.10;80.30;;;;;;6129193;23;19971;-79
2022/04/12 05:13:43;;;;;;;;;;;4.10;81.80;;;;;;6101458;23;20243;-80
2022/04/12 05:16:10;;;;;;;;;;;4.10;81.40;;;;;;6098789;23;20463;-80
2022/04/12 05:18:37;;;;;;;;;;;4.10;80.60;;;;;;6102075;23;19960;-80
2022/04/12 05:21:03;;;;;;;;;;;4.10;80.10;;;;;;6102568;23;19921;-80
2022/04/12 05:23:30;;;;;;;;;;;4.10;79.90;;;;;;6099472;23;19920;-80
2022/04/12 05:25:57;;;;;;;;;;;4.10;79.50;;;;;;6100450;23;19917;-79
2022/04/12 05:28:23;;;;;;;;;;;4.20;79.30;;;;;;6098825;23;19972;-81
2022/04/12 05:30:50;;;;;;;;;;;4.20;79.30;;;;;;6099470;23;19928;-80
2022/04/12 05:33:17;;;;;;;;;;;4.20;79.80;;;;;;6099433;23;19921;-81
2022/04/12 05:35:44;;;;;;;;;;;4.40;79.10;;;;;;6098373;23;19921;-80
2022/04/12 05:38:10;;;;;;;;;;;4.50;78.20;;;;;;6099754;23;19928;-79
2022/04/12 05:40:37;;;;;;;;;;;4.50;77.70;;;;;;6129003;23;19921;-80
2022/04/12 05:43:04;;;;;;;;;;;4.60;79.40;;;;;;6104267;23;19968;-80
2022/04/12 05:45:31;;;;;;;;;;;4.60;78.20;;;;;;6103023;23;20334;-81
2022/04/12 05:47:58;;;;;;;;;;;4.80;77.70;;;;;;6125399;23;19917;-81
2022/04/12 05:50:26;;;;;;;;;;;4.80;77.00;;;;;;6100819;23;19975;-81
2022/04/12 05:52:53;;;;;;;;;;;5.00;76.80;;;;;;6127271;23;19972;-81
2022/04/12 05:55:22;;;;;;;;;;;5.10;77.70;;;;;;6100800;23;19921;-80
2022/04/12 05:57:49;;;;;;;;;;;5.20;77.10;;;;;;6098811;23;19927;-80
2022/04/12 06:00:16;;;;;;;;;;;5.20;76.70;;;;;;6102134;23;19979;-80
2022/04/12 06:02:43;;;;;;;;;;;5.30;76.60;;;;;;6099003;23;20200;-80
2022/04/12 06:05:13;;;;;;;;;;;5.30;77.00;;;;;;6103348;23;19921;-80
2022/04/12 06:07:41;;;;;;;;;;;5.40;77.60;;;;;;6126699;23;19928;-80
2022/04/12 06:10:08;;;;;;;;;;;5.40;77.70;;;;;;6098918;23;19941;-81
2022/04/12 06:12:36;;;;;;;;;;;5.50;78.20;;;;;;6103216;23;19925;-81
2022/04/12 06:15:03;;;;;;;;;;;5.60;77.30;;;;;;6101028;23;20343;-81
2022/04/12 06:17:34;;;;;;;;;;;5.60;76.60;;;;;;6102180;23;19917;-80
2022/04/12 06:20:04;;;;;;;;;;;5.70;75.60;;;;;;6099473;23;19920;-81
2022/04/12 06:22:31;;;;;;;;;;;5.80;76.40;;;;;;6098551;23;19973;-80
2022/04/12 06:24:59;;;;;;;;;;;5.90;76.30;;;;;;6123694;23;20333;-81
2022/04/12 06:27:33;;;;;;;;;;;6.00;75.70;;;;;;6099849;23;20333;-80
2022/04/12 06:30:07;;;;;;;;;;;6.10;75.30;;;;;;6098369;23;19917;-81
2022/04/12 06:32:34;;;;;;;;;;;6.20;74.90;;;;;;6099152;23;19916;-81
2022/04/12 06:35:02;;;;;;;;;;;6.30;74.50;;;;;;6123888;23;20253;-81
2022/04/12 06:37:29;;;;;;;;;;;6.50;73.80;;;;;;6100781;23;19921;-81
2022/04/12 06:39:56;;;;;;;;;;;6.60;73.00;;;;;;6127041;23;19940;-81
2022/04/12 06:42:23;;;;;;;;;;;6.80;71.70;;;;;;6102406;23;19968;-80
2022/04/12 06:44:49;;;;;;;;;;;7.10;72.70;;;;;;6126773;23;19917;-80
2022/04/12 06:47:17;;;;;;;;;;;7.30;70.80;;;;;;6100910;23;19921;-81
2022/04/12 06:49:44;;;;;;;;;;;7.40;70.50;;;;;;6127567;23;19988;-80
2022/04/12 06:52:11;;;;;;;;;;;7.60;70.10;;;;;;6100222;23;19927;-81
2022/04/12 06:54:38;;;;;;;;;;;7.90;69.40;;;;;;6099637;23;19983;-81
2022/04/12 06:57:05;;;;;;;;;;;8.10;68.30;;;;;;6100099;23;19964;-81
2022/04/12 06:59:32;;;;;;;;;;;8.30;67.30;;;;;;6101573;23;19924;-81
2022/04/12 07:02:01;;;;;;;;;;;8.40;66.30;;;;;;6101392;23;19916;-81
2022/04/12 07:04:28;;;;;;;;;;;8.80;64.10;;;;;;6101474;23;19967;-82
2022/04/12 07:06:56;;;;;;;;;;;9.00;64.40;;;;;;6100293;23;20373;-80
2022/04/12 07:09:23;;;;;;;;;;;9.10;63.50;;;;;;6126960;23;19996;-81
2022/04/12 07:11:50;;;;;;;;;;;9.30;60.10;;;;;;6101121;23;20361;-80
2022/04/12 07:14:17;;;;;;;;;;;9.70;58.70;;;;;;6124497;23;19967;-80
2022/04/12 07:16:44;;;;;;;;;;;10.00;57.80;;;;;;6103119;23;19921;-80
2022/04/12 07:19:11;;;;;;;;;;;10.20;58.70;;;;;;6100714;23;20298;-80
2022/04/12 07:21:39;;;;;;;;;;;10.20;61.20;;;;;;6099990;23;19916;-81
2022/04/12 07:24:07;;;;;;;;;;;10.30;60.80;;;;;;6101649;23;19921;-81
2022/04/12 07:26:34;;;;;;;;;;;10.50;58.10;;;;;;6102420;23;20298;-81
2022/04/12 07:29:01;;;;;;;;;;;10.80;57.80;;;;;;6100733;23;20254;-81
2022/04/12 07:31:28;;;;;;;;;;;10.90;55.50;;;;;;6101875;23;19932;-81
2022/04/12 07:33:55;;;;;;;;;;;11.00;55.60;;;;;;6105902;23;20557;-81
2022/04/12 07:36:22;;;;;;;;;;;11.10;55.00;;;;;;6127092;23;19968;-81
2022/04/12 07:38:49;;;;;;;;;;;11.30;54.70;;;;;;6107625;23;19972;-81
2022/04/12 07:41:17;;;;;;;;;;;11.40;54.10;;;;;;6108518;23;20017;-81
2022/04/12 07:43:47;;;;;;;;;;;11.80;52.30;;;;;;6100682;23;19920;-81
2022/04/12 07:46:14;;;;;;;;;;;12.00;51.90;;;;;;6110116;23;19968;-81
2022/04/12 07:48:47;;;;;;;;;;;12.20;50.10;;;;;;6102729;23;19917;-81
2022/04/12 07:51:15;;;;;;;;;;;12.30;49.10;;;;;;6098905;23;19969;-81
2022/04/12 07:53:42;;;;;;;;;;;12.40;49.40;;;;;;6109455;23;19924;-80
2022/04/12 07:56:09;;;;;;;;;;;12.60;49.40;;;;;;6106898;23;20298;-81
2022/04/12 07:58:36;;;;;;;;;;;12.70;49.30;;;;;;6101314;23;20254;-82
2022/04/12 08:01:03;;;;;;;;;;;12.90;49.10;;;;;;6100309;23;19917;-82
2022/04/12 08:03:30;;;;;;;;;;;13.00;47.10;;;;;;6101455;23;19927;-81
